sensor_id;sensor_type;location;lat;lon;timestamp;P1;durP1;ratioP1;P2;durP2;ratioP2
58768;SDS011;44536;47.474;19.056;2023-02-15T00:00:47;36.77;;;18.17;;
58768;SDS011;44536;47.474;19.056;2023-02-15T00:03:50;37.22;;;18.67;;
58768;SDS011;44536;47.474;19.056;2023-02-15T00:06:52;33.47;;;17.90;;
58768;SDS011;44536;47.474;19.056;2023-02-15T00:09:55;39.05;;;17.27;;
58768;SDS011;44536;47.474;19.056;2023-02-15T00:12:59;40.72;;;17.80;;
58768;SDS011;44536;47.474;19.056;2023-02-15T00:16:02;35.67;;;19.20;;
58768;SDS011;44536;47.474;19.056;2023-02-15T00:19:05;32.72;;;16.75;;
58768;SDS011;44536;47.474;19.056;2023-02-15T00:22:09;33.35;;;18.70;;
58768;SDS011;44536;47.474;19.056;2023-02-15T00:25:11;33.78;;;16.95;;
58768;SDS011;44536;47.474;19.056;2023-02-15T00:28:14;30.65;;;16.95;;
58768;SDS011;44536;47.474;19.056;2023-02-15T00:31:16;33.47;;;15.18;;
58768;SDS011;44536;47.474;19.056;2023-02-15T00:34:20;39.33;;;19.80;;
58768;SDS011;44536;47.474;19.056;2023-02-15T00:37:24;38.78;;;18.83;;
58768;SDS011;44536;47.474;19.056;2023-02-15T00:40:26;35.83;;;18.25;;
58768;SDS011;44536;47.474;19.056;2023-02-15T00:43:29;30.98;;;17.10;;
58768;SDS011;44536;47.474;19.056;2023-02-15T00:46:33;30.65;;;17.20;;
58768;SDS011;44536;47.474;19.056;2023-02-15T00:49:35;33.40;;;17.60;;
58768;SDS011;44536;47.474;19.056;2023-02-15T00:52:38;32.08;;;15.68;;
58768;SDS011;44536;47.474;19.056;2023-02-15T00:55:40;35.28;;;16.10;;
58768;SDS011;44536;47.474;19.056;2023-02-15T00:58:43;35.58;;;18.55;;
58768;SDS011;44536;47.474;19.056;2023-02-15T01:01:45;38.13;;;19.70;;
58768;SDS011;44536;47.474;19.056;2023-02-15T01:04:48;34.83;;;17.50;;
58768;SDS011;44536;47.474;19.056;2023-02-15T01:07:50;40.53;;;19.45;;
58768;SDS011;44536;47.474;19.056;2023-02-15T01:10:55;32.55;;;17.12;;
58768;SDS011;44536;47.474;19.056;2023-02-15T01:13:58;35.60;;;17.33;;
58768;SDS011;44536;47.474;19.056;2023-02-15T01:17:01;32.23;;;16.97;;
58768;SDS011;44536;47.474;19.056;2023-02-15T01:20:03;30.23;;;17.83;;
58768;SDS011;44536;47.474;19.056;2023-02-15T01:23:08;33.85;;;17.73;;
58768;SDS011;44536;47.474;19.056;2023-02-15T01:26:11;33.17;;;18.67;;
58768;SDS011;44536;47.474;19.056;2023-02-15T01:29:13;31.60;;;17.08;;
58768;SDS011;44536;47.474;19.056;2023-02-15T01:32:16;33.15;;;16.35;;
58768;SDS011;44536;47.474;19.056;2023-02-15T01:35:18;38.95;;;18.80;;
58768;SDS011;44536;47.474;19.056;2023-02-15T01:38:21;36.10;;;18.93;;
58768;SDS011;44536;47.474;19.056;2023-02-15T01:41:23;37.08;;;16.75;;
58768;SDS011;44536;47.474;19.056;2023-02-15T01:48:06;35.17;;;15.75;;
58768;SDS011;44536;47.474;19.056;2023-02-15T01:51:20;35.97;;;17.42;;
58768;SDS011;44536;47.474;19.056;2023-02-15T01:54:29;34.45;;;17.70;;
58768;SDS011;44536;47.474;19.056;2023-02-15T01:57:34;36.30;;;16.37;;
58768;SDS011;44536;47.474;19.056;2023-02-15T02:00:37;31.10;;;15.95;;
58768;SDS011;44536;47.474;19.056;2023-02-15T02:06:58;33.22;;;18.15;;
58768;SDS011;44536;47.474;19.056;2023-02-15T02:13:07;27.65;;;14.00;;
58768;SDS011;44536;47.474;19.056;2023-02-15T02:39:37;34.97;;;15.60;;
58768;SDS011;44536;47.474;19.056;2023-02-15T02:42:49;30.92;;;16.67;;
58768;SDS011;44536;47.474;19.056;2023-02-15T02:46:19;30.52;;;15.45;;
58768;SDS011;44536;47.474;19.056;2023-02-15T02:49:36;32.97;;;17.62;;
58768;SDS011;44536;47.474;19.056;2023-02-15T02:55:51;35.58;;;17.05;;
58768;SDS011;44536;47.474;19.056;2023-02-15T02:59:00;26.30;;;15.07;;
58768;SDS011;44536;47.474;19.056;2023-02-15T03:02:30;34.03;;;17.65;;
58768;SDS011;44536;47.474;19.056;2023-02-15T03:05:39;26.30;;;13.88;;
58768;SDS011;44536;47.474;19.056;2023-02-15T03:08:48;39.22;;;19.35;;
58768;SDS011;44536;47.474;19.056;2023-02-15T03:11:56;28.00;;;16.73;;
58768;SDS011;44536;47.474;19.056;2023-02-15T03:18:18;36.22;;;16.77;;
58768;SDS011;44536;47.474;19.056;2023-02-15T03:21:32;29.27;;;15.55;;
58768;SDS011;44536;47.474;19.056;2023-02-15T03:25:02;29.95;;;16.50;;
58768;SDS011;44536;47.474;19.056;2023-02-15T03:28:25;27.00;;;14.73;;
58768;SDS011;44536;47.474;19.056;2023-02-15T03:31:34;28.75;;;15.27;;
58768;SDS011;44536;47.474;19.056;2023-02-15T03:34:40;27.60;;;14.73;;
58768;SDS011;44536;47.474;19.056;2023-02-15T03:37:44;24.40;;;12.93;;
58768;SDS011;44536;47.474;19.056;2023-02-15T03:40:52;32.78;;;17.20;;
58768;SDS011;44536;47.474;19.056;2023-02-15T03:44:19;32.33;;;16.27;;
58768;SDS011;44536;47.474;19.056;2023-02-15T03:47:30;30.60;;;18.15;;
58768;SDS011;44536;47.474;19.056;2023-02-15T03:50:36;35.97;;;18.30;;
58768;SDS011;44536;47.474;19.056;2023-02-15T03:54:03;32.95;;;16.77;;
58768;SDS011;44536;47.474;19.056;2023-02-15T03:57:25;35.45;;;16.48;;
58768;SDS011;44536;47.474;19.056;2023-02-15T04:00:49;37.80;;;16.80;;
58768;SDS011;44536;47.474;19.056;2023-02-15T04:04:19;33.67;;;17.08;;
58768;SDS011;44536;47.474;19.056;2023-02-15T04:07:26;32.25;;;15.60;;
58768;SDS011;44536;47.474;19.056;2023-02-15T04:10:28;38.20;;;17.83;;
58768;SDS011;44536;47.474;19.056;2023-02-15T04:13:49;32.70;;;17.58;;
58768;SDS011;44536;47.474;19.056;2023-02-15T04:16:58;31.10;;;15.90;;
58768;SDS011;44536;47.474;19.056;2023-02-15T04:20:00;36.15;;;17.73;;
58768;SDS011;44536;47.474;19.056;2023-02-15T04:23:22;30.23;;;16.95;;
58768;SDS011;44536;47.474;19.056;2023-02-15T04:26:43;30.95;;;17.92;;
58768;SDS011;44536;47.474;19.056;2023-02-15T04:29:45;32.43;;;14.83;;
58768;SDS011;44536;47.474;19.056;2023-02-15T04:32:47;28.42;;;15.25;;
58768;SDS011;44536;47.474;19.056;2023-02-15T04:35:50;36.73;;;15.53;;
58768;SDS011;44536;47.474;19.056;2023-02-15T04:38:52;35.83;;;18.85;;
58768;SDS011;44536;47.474;19.056;2023-02-15T04:41:55;36.25;;;18.60;;
58768;SDS011;44536;47.474;19.056;2023-02-15T04:44:57;30.33;;;15.07;;
58768;SDS011;44536;47.474;19.056;2023-02-15T04:48:00;34.90;;;17.67;;
58768;SDS011;44536;47.474;19.056;2023-02-15T04:51:05;32.78;;;16.70;;
58768;SDS011;44536;47.474;19.056;2023-02-15T04:54:09;32.78;;;17.33;;
58768;SDS011;44536;47.474;19.056;2023-02-15T04:57:11;33.78;;;17.62;;
58768;SDS011;44536;47.474;19.056;2023-02-15T05:00:15;31.62;;;17.27;;
58768;SDS011;44536;47.474;19.056;2023-02-15T05:03:18;32.15;;;17.12;;
58768;SDS011;44536;47.474;19.056;2023-02-15T05:06:21;30.05;;;16.12;;
58768;SDS011;44536;47.474;19.056;2023-02-15T05:09:23;35.92;;;15.90;;
58768;SDS011;44536;47.474;19.056;2023-02-15T05:12:25;28.15;;;15.45;;
58768;SDS011;44536;47.474;19.056;2023-02-15T05:15:28;28.60;;;16.00;;
58768;SDS011;44536;47.474;19.056;2023-02-15T05:18:31;31.47;;;16.33;;
58768;SDS011;44536;47.474;19.056;2023-02-15T05:21:34;30.80;;;16.17;;
58768;SDS011;44536;47.474;19.056;2023-02-15T05:24:37;33.13;;;16.15;;
58768;SDS011;44536;47.474;19.056;2023-02-15T05:27:57;31.37;;;14.20;;
58768;SDS011;44536;47.474;19.056;2023-02-15T05:31:19;33.55;;;15.13;;
58768;SDS011;44536;47.474;19.056;2023-02-15T05:34:22;30.75;;;14.85;;
58768;SDS011;44536;47.474;19.056;2023-02-15T05:37:24;27.60;;;15.63;;
58768;SDS011;44536;47.474;19.056;2023-02-15T05:40:27;41.00;;;19.45;;
58768;SDS011;44536;47.474;19.056;2023-02-15T05:43:30;37.37;;;17.63;;
58768;SDS011;44536;47.474;19.056;2023-02-15T05:46:32;35.07;;;17.13;;
58768;SDS011;44536;47.474;19.056;2023-02-15T05:49:35;32.63;;;16.33;;
58768;SDS011;44536;47.474;19.056;2023-02-15T05:52:37;28.30;;;18.23;;
58768;SDS011;44536;47.474;19.056;2023-02-15T05:55:40;30.83;;;18.03;;
58768;SDS011;44536;47.474;19.056;2023-02-15T05:58:43;30.17;;;15.00;;
58768;SDS011;44536;47.474;19.056;2023-02-15T06:01:45;32.60;;;17.53;;
58768;SDS011;44536;47.474;19.056;2023-02-15T06:04:48;32.53;;;15.70;;
58768;SDS011;44536;47.474;19.056;2023-02-15T06:07:50;31.95;;;16.73;;
58768;SDS011;44536;47.474;19.056;2023-02-15T06:10:55;26.25;;;14.50;;
58768;SDS011;44536;47.474;19.056;2023-02-15T06:13:57;26.85;;;17.10;;
58768;SDS011;44536;47.474;19.056;2023-02-15T06:17:00;30.65;;;15.18;;
58768;SDS011;44536;47.474;19.056;2023-02-15T06:20:03;33.53;;;16.05;;
58768;SDS011;44536;47.474;19.056;2023-02-15T06:23:06;27.25;;;14.75;;
58768;SDS011;44536;47.474;19.056;2023-02-15T06:26:08;34.38;;;18.87;;
58768;SDS011;44536;47.474;19.056;2023-02-15T06:29:11;37.40;;;19.30;;
58768;SDS011;44536;47.474;19.056;2023-02-15T06:32:13;36.22;;;18.00;;
58768;SDS011;44536;47.474;19.056;2023-02-15T06:35:16;34.22;;;18.42;;
58768;SDS011;44536;47.474;19.056;2023-02-15T06:38:18;31.77;;;17.90;;
58768;SDS011;44536;47.474;19.056;2023-02-15T06:41:22;32.63;;;17.65;;
58768;SDS011;44536;47.474;19.056;2023-02-15T06:44:25;31.48;;;16.45;;
58768;SDS011;44536;47.474;19.056;2023-02-15T06:47:28;33.55;;;19.30;;
58768;SDS011;44536;47.474;19.056;2023-02-15T06:50:30;29.42;;;16.15;;
58768;SDS011;44536;47.474;19.056;2023-02-15T06:53:33;30.33;;;16.80;;
58768;SDS011;44536;47.474;19.056;2023-02-15T06:56:35;28.00;;;16.83;;
58768;SDS011;44536;47.474;19.056;2023-02-15T06:59:38;31.10;;;15.57;;
58768;SDS011;44536;47.474;19.056;2023-02-15T07:02:40;26.85;;;16.85;;
58768;SDS011;44536;47.474;19.056;2023-02-15T07:05:43;26.17;;;14.43;;
58768;SDS011;44536;47.474;19.056;2023-02-15T07:08:47;28.98;;;15.85;;
58768;SDS011;44536;47.474;19.056;2023-02-15T07:11:51;31.35;;;17.05;;
58768;SDS011;44536;47.474;19.056;2023-02-15T07:15:16;29.65;;;15.80;;
58768;SDS011;44536;47.474;19.056;2023-02-15T07:18:20;27.48;;;14.80;;
58768;SDS011;44536;47.474;19.056;2023-02-15T07:21:23;30.23;;;15.15;;
58768;SDS011;44536;47.474;19.056;2023-02-15T07:24:25;28.52;;;16.12;;
58768;SDS011;44536;47.474;19.056;2023-02-15T07:27:29;30.50;;;13.05;;
58768;SDS011;44536;47.474;19.056;2023-02-15T07:30:33;34.15;;;16.90;;
58768;SDS011;44536;47.474;19.056;2023-02-15T07:33:36;31.50;;;15.82;;
58768;SDS011;44536;47.474;19.056;2023-02-15T07:36:38;32.15;;;16.20;;
58768;SDS011;44536;47.474;19.056;2023-02-15T07:39:41;33.53;;;16.40;;
58768;SDS011;44536;47.474;19.056;2023-02-15T07:42:43;31.83;;;15.93;;
58768;SDS011;44536;47.474;19.056;2023-02-15T07:45:45;29.08;;;15.52;;
58768;SDS011;44536;47.474;19.056;2023-02-15T07:48:48;30.42;;;17.40;;
58768;SDS011;44536;47.474;19.056;2023-02-15T07:51:50;33.60;;;18.65;;
58768;SDS011;44536;47.474;19.056;2023-02-15T07:54:53;34.17;;;17.73;;
58768;SDS011;44536;47.474;19.056;2023-02-15T07:57:56;29.48;;;17.05;;
58768;SDS011;44536;47.474;19.056;2023-02-15T08:00:59;36.60;;;18.02;;
58768;SDS011;44536;47.474;19.056;2023-02-15T08:04:04;27.95;;;15.93;;
58768;SDS011;44536;47.474;19.056;2023-02-15T08:07:08;33.03;;;16.65;;
58768;SDS011;44536;47.474;19.056;2023-02-15T08:10:10;30.27;;;17.45;;
58768;SDS011;44536;47.474;19.056;2023-02-15T08:13:33;27.40;;;15.65;;
58768;SDS011;44536;47.474;19.056;2023-02-15T08:19:41;34.03;;;17.67;;
58768;SDS011;44536;47.474;19.056;2023-02-15T08:22:43;34.33;;;19.37;;
58768;SDS011;44536;47.474;19.056;2023-02-15T08:25:45;32.28;;;18.00;;
58768;SDS011;44536;47.474;19.056;2023-02-15T08:28:48;34.63;;;18.17;;
58768;SDS011;44536;47.474;19.056;2023-02-15T08:34:55;31.83;;;17.92;;
58768;SDS011;44536;47.474;19.056;2023-02-15T08:37:58;34.88;;;18.40;;
58768;SDS011;44536;47.474;19.056;2023-02-15T08:41:10;32.72;;;18.10;;
58768;SDS011;44536;47.474;19.056;2023-02-15T08:44:14;31.75;;;18.02;;
58768;SDS011;44536;47.474;19.056;2023-02-15T08:47:19;37.60;;;19.95;;
58768;SDS011;44536;47.474;19.056;2023-02-15T08:50:21;35.63;;;19.17;;
58768;SDS011;44536;47.474;19.056;2023-02-15T08:53:24;38.83;;;20.10;;
58768;SDS011;44536;47.474;19.056;2023-02-15T08:56:27;41.67;;;21.83;;
58768;SDS011;44536;47.474;19.056;2023-02-15T08:59:32;39.47;;;20.08;;
58768;SDS011;44536;47.474;19.056;2023-02-15T09:02:34;38.72;;;19.98;;
58768;SDS011;44536;47.474;19.056;2023-02-15T09:05:37;37.53;;;19.85;;
58768;SDS011;44536;47.474;19.056;2023-02-15T09:08:39;39.10;;;22.35;;
58768;SDS011;44536;47.474;19.056;2023-02-15T09:11:42;36.97;;;21.02;;
58768;SDS011;44536;47.474;19.056;2023-02-15T09:14:46;36.75;;;19.90;;
58768;SDS011;44536;47.474;19.056;2023-02-15T09:17:49;36.95;;;21.67;;
58768;SDS011;44536;47.474;19.056;2023-02-15T09:20:51;37.70;;;21.05;;
58768;SDS011;44536;47.474;19.056;2023-02-15T09:23:58;35.30;;;21.25;;
58768;SDS011;44536;47.474;19.056;2023-02-15T09:27:02;31.50;;;21.05;;
58768;SDS011;44536;47.474;19.056;2023-02-15T09:30:05;33.55;;;22.92;;
58768;SDS011;44536;47.474;19.056;2023-02-15T09:33:08;35.55;;;22.05;;
58768;SDS011;44536;47.474;19.056;2023-02-15T09:39:34;33.28;;;19.75;;
58768;SDS011;44536;47.474;19.056;2023-02-15T09:42:51;39.58;;;21.80;;
58768;SDS011;44536;47.474;19.056;2023-02-15T09:46:34;31.55;;;17.75;;
58768;SDS011;44536;47.474;19.056;2023-02-15T09:56:37;33.95;;;17.90;;
58768;SDS011;44536;47.474;19.056;2023-02-15T10:13:13;43.35;;;24.55;;
58768;SDS011;44536;47.474;19.056;2023-02-15T10:26:50;38.50;;;24.02;;
58768;SDS011;44536;47.474;19.056;2023-02-15T10:30:11;32.95;;;19.48;;
58768;SDS011;44536;47.474;19.056;2023-02-15T10:43:19;28.67;;;19.55;;
58768;SDS011;44536;47.474;19.056;2023-02-15T10:50:07;36.20;;;21.12;;
58768;SDS011;44536;47.474;19.056;2023-02-15T10:53:24;32.95;;;19.75;;
58768;SDS011;44536;47.474;19.056;2023-02-15T10:59:50;29.65;;;18.62;;
58768;SDS011;44536;47.474;19.056;2023-02-15T11:06:44;35.42;;;23.15;;
58768;SDS011;44536;47.474;19.056;2023-02-15T11:10:00;35.30;;;19.75;;
58768;SDS011;44536;47.474;19.056;2023-02-15T11:13:16;34.88;;;21.50;;
58768;SDS011;44536;47.474;19.056;2023-02-15T11:16:21;33.70;;;20.15;;
58768;SDS011;44536;47.474;19.056;2023-02-15T11:19:34;39.75;;;22.58;;
58768;SDS011;44536;47.474;19.056;2023-02-15T11:22:43;31.12;;;19.17;;
58768;SDS011;44536;47.474;19.056;2023-02-15T11:25:58;32.45;;;19.95;;
58768;SDS011;44536;47.474;19.056;2023-02-15T11:32:38;34.20;;;19.48;;
58768;SDS011;44536;47.474;19.056;2023-02-15T11:35:47;28.55;;;18.30;;
58768;SDS011;44536;47.474;19.056;2023-02-15T11:39:02;31.98;;;21.40;;
58768;SDS011;44536;47.474;19.056;2023-02-15T11:42:13;35.70;;;22.92;;
58768;SDS011;44536;47.474;19.056;2023-02-15T11:45:29;31.08;;;20.25;;
58768;SDS011;44536;47.474;19.056;2023-02-15T11:48:33;27.37;;;17.98;;
58768;SDS011;44536;47.474;19.056;2023-02-15T11:54:42;39.47;;;20.42;;
58768;SDS011;44536;47.474;19.056;2023-02-15T11:57:53;32.88;;;18.92;;
58768;SDS011;44536;47.474;19.056;2023-02-15T12:01:23;31.87;;;20.17;;
58768;SDS011;44536;47.474;19.056;2023-02-15T12:04:34;30.48;;;18.65;;
58768;SDS011;44536;47.474;19.056;2023-02-15T12:11:20;27.10;;;17.73;;
58768;SDS011;44536;47.474;19.056;2023-02-15T12:14:28;31.90;;;19.15;;
58768;SDS011;44536;47.474;19.056;2023-02-15T12:17:53;27.42;;;16.80;;
58768;SDS011;44536;47.474;19.056;2023-02-15T12:20:59;31.33;;;18.25;;
58768;SDS011;44536;47.474;19.056;2023-02-15T12:24:28;29.33;;;18.42;;
58768;SDS011;44536;47.474;19.056;2023-02-15T12:27:48;28.33;;;17.33;;
58768;SDS011;44536;47.474;19.056;2023-02-15T12:30:56;26.15;;;16.85;;
58768;SDS011;44536;47.474;19.056;2023-02-15T12:34:01;29.30;;;15.40;;
58768;SDS011;44536;47.474;19.056;2023-02-15T12:37:19;26.60;;;16.85;;
58768;SDS011;44536;47.474;19.056;2023-02-15T12:40:26;28.30;;;16.98;;
58768;SDS011;44536;47.474;19.056;2023-02-15T12:43:34;27.58;;;17.55;;
58768;SDS011;44536;47.474;19.056;2023-02-15T12:46:39;30.23;;;16.20;;
58768;SDS011;44536;47.474;19.056;2023-02-15T12:50:02;29.98;;;17.60;;
58768;SDS011;44536;47.474;19.056;2023-02-15T12:53:29;28.23;;;16.45;;
58768;SDS011;44536;47.474;19.056;2023-02-15T12:56:36;26.23;;;13.85;;
58768;SDS011;44536;47.474;19.056;2023-02-15T12:59:47;25.02;;;13.82;;
58768;SDS011;44536;47.474;19.056;2023-02-15T13:02:54;24.25;;;13.93;;
58768;SDS011;44536;47.474;19.056;2023-02-15T13:05:59;22.60;;;12.63;;
58768;SDS011;44536;47.474;19.056;2023-02-15T13:12:28;21.83;;;13.27;;
58768;SDS011;44536;47.474;19.056;2023-02-15T13:15:35;24.90;;;12.40;;
58768;SDS011;44536;47.474;19.056;2023-02-15T13:18:43;23.77;;;14.25;;
58768;SDS011;44536;47.474;19.056;2023-02-15T13:21:48;26.00;;;14.93;;
58768;SDS011;44536;47.474;19.056;2023-02-15T13:24:59;23.60;;;14.02;;
58768;SDS011;44536;47.474;19.056;2023-02-15T13:28:09;22.83;;;14.73;;
58768;SDS011;44536;47.474;19.056;2023-02-15T13:31:20;21.90;;;14.73;;
58768;SDS011;44536;47.474;19.056;2023-02-15T13:34:33;26.60;;;13.77;;
58768;SDS011;44536;47.474;19.056;2023-02-15T13:37:46;25.83;;;14.73;;
58768;SDS011;44536;47.474;19.056;2023-02-15T13:40:58;28.75;;;18.08;;
58768;SDS011;44536;47.474;19.056;2023-02-15T13:44:14;29.95;;;18.08;;
58768;SDS011;44536;47.474;19.056;2023-02-15T13:55:00;27.83;;;15.45;;
58768;SDS011;44536;47.474;19.056;2023-02-15T14:07:49;31.30;;;15.15;;
58768;SDS011;44536;47.474;19.056;2023-02-15T14:11:05;25.60;;;15.60;;
58768;SDS011;44536;47.474;19.056;2023-02-15T14:21:15;24.92;;;15.98;;
58768;SDS011;44536;47.474;19.056;2023-02-15T14:31:02;29.77;;;17.08;;
58768;SDS011;44536;47.474;19.056;2023-02-15T14:34:17;27.55;;;15.95;;
58768;SDS011;44536;47.474;19.056;2023-02-15T14:47:32;30.35;;;15.68;;
58768;SDS011;44536;47.474;19.056;2023-02-15T14:50:39;31.00;;;15.82;;
58768;SDS011;44536;47.474;19.056;2023-02-15T14:53:45;23.50;;;14.68;;
58768;SDS011;44536;47.474;19.056;2023-02-15T15:00:03;36.42;;;18.40;;
58768;SDS011;44536;47.474;19.056;2023-02-15T15:03:28;29.63;;;15.02;;
58768;SDS011;44536;47.474;19.056;2023-02-15T15:06:34;26.27;;;15.35;;
58768;SDS011;44536;47.474;19.056;2023-02-15T15:09:39;28.00;;;15.57;;
58768;SDS011;44536;47.474;19.056;2023-02-15T15:12:44;34.50;;;15.38;;
58768;SDS011;44536;47.474;19.056;2023-02-15T15:29:38;34.47;;;15.60;;
58768;SDS011;44536;47.474;19.056;2023-02-15T15:42:54;31.00;;;15.70;;
58768;SDS011;44536;47.474;19.056;2023-02-15T15:46:34;28.25;;;14.07;;
58768;SDS011;44536;47.474;19.056;2023-02-15T15:49:48;28.90;;;16.67;;
58768;SDS011;44536;47.474;19.056;2023-02-15T15:52:51;29.33;;;13.77;;
58768;SDS011;44536;47.474;19.056;2023-02-15T15:56:00;29.83;;;15.38;;
58768;SDS011;44536;47.474;19.056;2023-02-15T15:59:13;31.65;;;15.20;;
58768;SDS011;44536;47.474;19.056;2023-02-15T16:02:23;31.65;;;18.25;;
58768;SDS011;44536;47.474;19.056;2023-02-15T16:05:34;29.40;;;14.93;;
58768;SDS011;44536;47.474;19.056;2023-02-15T16:08:38;29.70;;;15.60;;
58768;SDS011;44536;47.474;19.056;2023-02-15T16:11:42;39.80;;;17.48;;
58768;SDS011;44536;47.474;19.056;2023-02-15T16:14:45;29.98;;;16.17;;
58768;SDS011;44536;47.474;19.056;2023-02-15T16:17:54;33.67;;;15.85;;
58768;SDS011;44536;47.474;19.056;2023-02-15T16:20:59;30.62;;;14.70;;
58768;SDS011;44536;47.474;19.056;2023-02-15T16:24:21;33.97;;;18.25;;
58768;SDS011;44536;47.474;19.056;2023-02-15T16:27:32;32.45;;;16.92;;
58768;SDS011;44536;47.474;19.056;2023-02-15T16:30:40;29.02;;;15.52;;
58768;SDS011;44536;47.474;19.056;2023-02-15T16:33:45;34.30;;;16.45;;
58768;SDS011;44536;47.474;19.056;2023-02-15T16:36:47;25.80;;;15.63;;
58768;SDS011;44536;47.474;19.056;2023-02-15T16:39:50;34.58;;;17.55;;
58768;SDS011;44536;47.474;19.056;2023-02-15T16:43:00;31.55;;;17.05;;
58768;SDS011;44536;47.474;19.056;2023-02-15T16:46:05;30.02;;;15.60;;
58768;SDS011;44536;47.474;19.056;2023-02-15T16:49:17;31.20;;;16.37;;
58768;SDS011;44536;47.474;19.056;2023-02-15T16:52:22;29.52;;;17.42;;
58768;SDS011;44536;47.474;19.056;2023-02-15T16:55:27;30.88;;;17.08;;
58768;SDS011;44536;47.474;19.056;2023-02-15T16:58:38;36.58;;;17.20;;
58768;SDS011;44536;47.474;19.056;2023-02-15T17:01:45;32.75;;;18.67;;
58768;SDS011;44536;47.474;19.056;2023-02-15T17:05:01;32.95;;;18.08;;
58768;SDS011;44536;47.474;19.056;2023-02-15T17:08:17;33.58;;;17.08;;
58768;SDS011;44536;47.474;19.056;2023-02-15T17:11:34;31.85;;;17.40;;
58768;SDS011;44536;47.474;19.056;2023-02-15T17:14:38;35.30;;;18.15;;
58768;SDS011;44536;47.474;19.056;2023-02-15T17:17:42;32.70;;;14.95;;
58768;SDS011;44536;47.474;19.056;2023-02-15T17:20:45;34.83;;;16.37;;
58768;SDS011;44536;47.474;19.056;2023-02-15T17:23:49;36.08;;;17.33;;
58768;SDS011;44536;47.474;19.056;2023-02-15T17:26:54;30.67;;;16.85;;
58768;SDS011;44536;47.474;19.056;2023-02-15T17:30:04;34.75;;;16.92;;
58768;SDS011;44536;47.474;19.056;2023-02-15T17:36:35;35.35;;;19.95;;
58768;SDS011;44536;47.474;19.056;2023-02-15T17:40:07;34.53;;;18.62;;
58768;SDS011;44536;47.474;19.056;2023-02-15T17:43:20;35.20;;;18.80;;
58768;SDS011;44536;47.474;19.056;2023-02-15T17:46:23;31.10;;;19.00;;
58768;SDS011;44536;47.474;19.056;2023-02-15T17:49:27;39.25;;;20.90;;
58768;SDS011;44536;47.474;19.056;2023-02-15T17:52:36;40.78;;;21.05;;
58768;SDS011;44536;47.474;19.056;2023-02-15T17:55:38;41.55;;;20.77;;
58768;SDS011;44536;47.474;19.056;2023-02-15T17:58:41;38.60;;;18.80;;
58768;SDS011;44536;47.474;19.056;2023-02-15T18:01:44;38.55;;;22.62;;
58768;SDS011;44536;47.474;19.056;2023-02-15T18:05:14;41.30;;;19.37;;
58768;SDS011;44536;47.474;19.056;2023-02-15T18:08:35;38.65;;;21.25;;
58768;SDS011;44536;47.474;19.056;2023-02-15T18:11:56;38.53;;;19.00;;
58768;SDS011;44536;47.474;19.056;2023-02-15T18:14:59;37.78;;;21.67;;
58768;SDS011;44536;47.474;19.056;2023-02-15T18:18:03;39.15;;;21.73;;
58768;SDS011;44536;47.474;19.056;2023-02-15T18:21:05;40.67;;;21.02;;
58768;SDS011;44536;47.474;19.056;2023-02-15T18:24:21;40.38;;;20.10;;
58768;SDS011;44536;47.474;19.056;2023-02-15T18:27:27;48.60;;;21.52;;
58768;SDS011;44536;47.474;19.056;2023-02-15T18:30:30;40.25;;;21.27;;
58768;SDS011;44536;47.474;19.056;2023-02-15T18:33:33;46.58;;;22.15;;
58768;SDS011;44536;47.474;19.056;2023-02-15T18:36:43;40.58;;;20.58;;
58768;SDS011;44536;47.474;19.056;2023-02-15T18:39:47;47.92;;;21.92;;
58768;SDS011;44536;47.474;19.056;2023-02-15T18:42:51;48.50;;;22.37;;
58768;SDS011;44536;47.474;19.056;2023-02-15T18:45:53;43.08;;;23.15;;
58768;SDS011;44536;47.474;19.056;2023-02-15T18:48:56;45.33;;;23.05;;
58768;SDS011;44536;47.474;19.056;2023-02-15T18:52:00;41.10;;;21.27;;
58768;SDS011;44536;47.474;19.056;2023-02-15T18:55:04;44.75;;;23.83;;
58768;SDS011;44536;47.474;19.056;2023-02-15T19:04:23;37.70;;;20.50;;
58768;SDS011;44536;47.474;19.056;2023-02-15T19:10:31;45.03;;;21.08;;
58768;SDS011;44536;47.474;19.056;2023-02-15T19:13:34;48.83;;;27.60;;
58768;SDS011;44536;47.474;19.056;2023-02-15T19:16:37;49.30;;;23.80;;
58768;SDS011;44536;47.474;19.056;2023-02-15T19:19:39;40.90;;;23.92;;
58768;SDS011;44536;47.474;19.056;2023-02-15T19:22:42;40.67;;;23.38;;
58768;SDS011;44536;47.474;19.056;2023-02-15T19:25:45;46.63;;;24.08;;
58768;SDS011;44536;47.474;19.056;2023-02-15T19:28:48;45.08;;;25.50;;
58768;SDS011;44536;47.474;19.056;2023-02-15T19:31:51;48.50;;;26.90;;
58768;SDS011;44536;47.474;19.056;2023-02-15T19:34:53;53.83;;;27.33;;
58768;SDS011;44536;47.474;19.056;2023-02-15T19:37:57;38.92;;;23.27;;
58768;SDS011;44536;47.474;19.056;2023-02-15T19:41:02;48.90;;;27.58;;
58768;SDS011;44536;47.474;19.056;2023-02-15T19:44:07;54.60;;;27.98;;
58768;SDS011;44536;47.474;19.056;2023-02-15T19:47:11;54.97;;;31.85;;
58768;SDS011;44536;47.474;19.056;2023-02-15T19:50:15;57.10;;;31.23;;
58768;SDS011;44536;47.474;19.056;2023-02-15T19:53:23;51.47;;;28.80;;
58768;SDS011;44536;47.474;19.056;2023-02-15T19:56:28;47.38;;;28.02;;
58768;SDS011;44536;47.474;19.056;2023-02-15T19:59:31;54.83;;;30.80;;
58768;SDS011;44536;47.474;19.056;2023-02-15T20:02:35;53.50;;;31.73;;
58768;SDS011;44536;47.474;19.056;2023-02-15T20:05:37;60.28;;;31.25;;
58768;SDS011;44536;47.474;19.056;2023-02-15T20:08:40;52.45;;;29.45;;
58768;SDS011;44536;47.474;19.056;2023-02-15T20:11:43;56.95;;;32.53;;
58768;SDS011;44536;47.474;19.056;2023-02-15T20:14:45;53.65;;;31.58;;
58768;SDS011;44536;47.474;19.056;2023-02-15T20:17:48;50.95;;;30.52;;
58768;SDS011;44536;47.474;19.056;2023-02-15T20:20:52;50.50;;;28.10;;
58768;SDS011;44536;47.474;19.056;2023-02-15T20:23:56;62.20;;;30.98;;
58768;SDS011;44536;47.474;19.056;2023-02-15T20:26:59;58.85;;;30.80;;
58768;SDS011;44536;47.474;19.056;2023-02-15T20:30:02;54.63;;;30.43;;
58768;SDS011;44536;47.474;19.056;2023-02-15T20:33:05;56.58;;;31.55;;
58768;SDS011;44536;47.474;19.056;2023-02-15T20:36:14;59.30;;;33.37;;
58768;SDS011;44536;47.474;19.056;2023-02-15T20:39:18;66.22;;;33.53;;
58768;SDS011;44536;47.474;19.056;2023-02-15T20:42:21;81.70;;;33.17;;
58768;SDS011;44536;47.474;19.056;2023-02-15T20:45:25;64.82;;;34.10;;
58768;SDS011;44536;47.474;19.056;2023-02-15T20:48:31;59.30;;;33.30;;
58768;SDS011;44536;47.474;19.056;2023-02-15T20:51:33;61.55;;;32.85;;
58768;SDS011;44536;47.474;19.056;2023-02-15T20:54:36;62.72;;;33.10;;
58768;SDS011;44536;47.474;19.056;2023-02-15T20:57:38;54.72;;;32.22;;
58768;SDS011;44536;47.474;19.056;2023-02-15T21:00:40;63.38;;;33.95;;
58768;SDS011;44536;47.474;19.056;2023-02-15T21:03:42;55.80;;;31.65;;
58768;SDS011;44536;47.474;19.056;2023-02-15T21:06:46;63.90;;;34.25;;
58768;SDS011;44536;47.474;19.056;2023-02-15T21:09:48;52.70;;;31.35;;
58768;SDS011;44536;47.474;19.056;2023-02-15T21:12:51;58.40;;;31.80;;